sensor_id;sensor_type;location;lat;lon;timestamp;pressure;altitude;pressure_sealevel;temperature;humidity
50852;BME280;43953;45.508;-122.806;2023-07-20T00:00:17;100601.34;;;26.36;40.44
50852;BME280;43953;45.508;-122.806;2023-07-20T00:00:49;100603.28;;;26.35;40.47
50852;BME280;43953;45.508;-122.806;2023-07-20T00:01:24;100603.78;;;26.37;40.49
50852;BME280;43953;45.508;-122.806;2023-07-20T00:01:56;100600.22;;;26.37;40.00
50852;BME280;43953;45.508;-122.806;2023-07-20T00:02:27;100596.31;;;26.38;40.24
50852;BME280;43953;45.508;-122.806;2023-07-20T00:03:13;100601.03;;;26.37;40.25
50852;BME280;43953;45.508;-122.806;2023-07-20T00:03:50;100598.78;;;26.39;40.35
50852;BME280;43953;45.508;-122.806;2023-07-20T00:04:25;100597.63;;;26.40;40.27
50852;BME280;43953;45.508;-122.806;2023-07-20T00:04:57;100603.16;;;26.40;40.48
50852;BME280;43953;45.508;-122.806;2023-07-20T00:05:29;100598.94;;;26.43;40.26
50852;BME280;43953;45.508;-122.806;2023-07-20T00:06:00;100602.50;;;26.43;40.41
50852;BME280;43953;45.508;-122.806;2023-07-20T00:06:32;100596.19;;;26.43;40.12
50852;BME280;43953;45.508;-122.806;2023-07-20T00:07:04;100598.94;;;26.43;40.46
50852;BME280;43953;45.508;-122.806;2023-07-20T00:07:36;100600.56;;;26.44;40.18
50852;BME280;43953;45.508;-122.806;2023-07-20T00:08:08;100603.31;;;26.44;40.22
50852;BME280;43953;45.508;-122.806;2023-07-20T00:08:39;100593.94;;;26.45;40.49
50852;BME280;43953;45.508;-122.806;2023-07-20T00:09:11;100599.44;;;26.45;40.32
50852;BME280;43953;45.508;-122.806;2023-07-20T00:09:43;100596.69;;;26.45;40.10
50852;BME280;43953;45.508;-122.806;2023-07-20T00:10:15;100599.94;;;26.47;40.51
50852;BME280;43953;45.508;-122.806;2023-07-20T00:10:46;100599.13;;;26.46;40.00
50852;BME280;43953;45.508;-122.806;2023-07-20T00:11:18;100598.81;;;26.48;40.26
50852;BME280;43953;45.508;-122.806;2023-07-20T00:11:52;100596.84;;;26.48;40.22
50852;BME280;43953;45.508;-122.806;2023-07-20T00:12:24;100591.34;;;26.48;40.10
50852;BME280;43953;45.508;-122.806;2023-07-20T00:12:56;100593.00;;;26.49;40.07
50852;BME280;43953;45.508;-122.806;2023-07-20T00:13:27;100596.56;;;26.50;40.37
50852;BME280;43953;45.508;-122.806;2023-07-20T00:13:59;100597.41;;;26.50;39.97
50852;BME280;43953;45.508;-122.806;2023-07-20T00:14:31;100601.78;;;26.51;40.41
50852;BME280;43953;45.508;-122.806;2023-07-20T00:15:03;100599.00;;;26.51;40.16
50852;BME280;43953;45.508;-122.806;2023-07-20T00:15:35;100601.44;;;26.53;40.42
50852;BME280;43953;45.508;-122.806;2023-07-20T00:16:07;100592.34;;;26.52;40.41
50852;BME280;43953;45.508;-122.806;2023-07-20T00:16:39;100599.53;;;26.53;39.93
50852;BME280;43953;45.508;-122.806;2023-07-20T00:17:10;100596.41;;;26.55;40.18
50852;BME280;43953;45.508;-122.806;2023-07-20T00:17:42;100594.81;;;26.54;40.01
50852;BME280;43953;45.508;-122.806;2023-07-20T00:18:14;100594.81;;;26.54;40.15
50852;BME280;43953;45.508;-122.806;2023-07-20T00:18:46;100591.72;;;26.55;39.97
50852;BME280;43953;45.508;-122.806;2023-07-20T00:19:18;100594.16;;;26.57;40.36
50852;BME280;43953;45.508;-122.806;2023-07-20T00:19:50;100600.50;;;26.58;39.99
50852;BME280;43953;45.508;-122.806;2023-07-20T00:20:23;100594.97;;;26.58;39.97
50852;BME280;43953;45.508;-122.806;2023-07-20T00:20:55;100595.78;;;26.58;39.86
50852;BME280;43953;45.508;-122.806;2023-07-20T00:21:26;100591.91;;;26.59;40.13
50852;BME280;43953;45.508;-122.806;2023-07-20T00:21:58;100593.53;;;26.60;40.17
50852;BME280;43953;45.508;-122.806;2023-07-20T00:22:30;100588.81;;;26.61;40.19
50852;BME280;43953;45.508;-122.806;2023-07-20T00:23:02;100592.38;;;26.61;39.75
50852;BME280;43953;45.508;-122.806;2023-07-20T00:23:34;100591.25;;;26.62;39.86
50852;BME280;43953;45.508;-122.806;2023-07-20T00:24:06;100589.63;;;26.61;39.82
50852;BME280;43953;45.508;-122.806;2023-07-20T00:24:37;100586.56;;;26.63;39.90
50852;BME280;43953;45.508;-122.806;2023-07-20T00:25:09;100596.78;;;26.62;39.77
50852;BME280;43953;45.508;-122.806;2023-07-20T00:25:42;100595.66;;;26.63;39.81
50852;BME280;43953;45.508;-122.806;2023-07-20T00:26:14;100586.22;;;26.64;39.90
50852;BME280;43953;45.508;-122.806;2023-07-20T00:26:46;100593.38;;;26.65;40.25
50852;BME280;43953;45.508;-122.806;2023-07-20T00:27:18;100587.88;;;26.65;39.87
50852;BME280;43953;45.508;-122.806;2023-07-20T00:27:49;100591.44;;;26.66;40.10
50852;BME280;43953;45.508;-122.806;2023-07-20T00:28:21;100595.00;;;26.66;40.00
50852;BME280;43953;45.508;-122.806;2023-07-20T00:28:53;100599.38;;;26.67;40.22
50852;BME280;43953;45.508;-122.806;2023-07-20T00:29:24;100594.66;;;26.68;40.13
50852;BME280;43953;45.508;-122.806;2023-07-20T00:29:56;100593.06;;;26.67;39.57
50852;BME280;43953;45.508;-122.806;2023-07-20T00:30:28;100592.25;;;26.66;39.86
50852;BME280;43953;45.508;-122.806;2023-07-20T00:31:00;100593.06;;;26.67;39.38
50852;BME280;43953;45.508;-122.806;2023-07-20T00:31:32;100585.56;;;26.67;39.81
50852;BME280;43953;45.508;-122.806;2023-07-20T00:32:04;100588.34;;;26.67;39.43
50852;BME280;43953;45.508;-122.806;2023-07-20T00:32:39;100582.81;;;26.67;39.88
50852;BME280;43953;45.508;-122.806;2023-07-20T00:33:11;100586.38;;;26.68;39.93
50852;BME280;43953;45.508;-122.806;2023-07-20T00:33:43;100593.84;;;26.67;39.98
50852;BME280;43953;45.508;-122.806;2023-07-20T00:34:15;100586.38;;;26.68;39.81
50852;BME280;43953;45.508;-122.806;2023-07-20T00:34:46;100586.88;;;26.70;39.82
50852;BME280;43953;45.508;-122.806;2023-07-20T00:35:18;100582.50;;;26.69;40.27
50852;BME280;43953;45.508;-122.806;2023-07-20T00:35:51;100589.34;;;26.71;40.16
50852;BME280;43953;45.508;-122.806;2023-07-20T00:36:22;100583.31;;;26.69;40.13
50852;BME280;43953;45.508;-122.806;2023-07-20T00:36:54;100592.09;;;26.71;40.05
50852;BME280;43953;45.508;-122.806;2023-07-20T00:37:25;100588.19;;;26.72;39.77
50852;BME280;43953;45.508;-122.806;2023-07-20T00:37:57;100585.44;;;26.72;40.14
50852;BME280;43953;45.508;-122.806;2023-07-20T00:38:29;100582.38;;;26.74;39.81
50852;BME280;43953;45.508;-122.806;2023-07-20T00:39:00;100581.53;;;26.73;40.26
50852;BME280;43953;45.508;-122.806;2023-07-20T00:39:32;100578.47;;;26.75;40.07
50852;BME280;43953;45.508;-122.806;2023-07-20T00:40:05;100586.41;;;26.76;39.94
50852;BME280;43953;45.508;-122.806;2023-07-20T00:40:41;100580.06;;;26.76;40.16
50852;BME280;43953;45.508;-122.806;2023-07-20T00:41:13;100578.13;;;26.76;39.94
50852;BME280;43953;45.508;-122.806;2023-07-20T00:41:45;100577.00;;;26.77;39.76
50852;BME280;43953;45.508;-122.806;2023-07-20T00:42:17;100582.19;;;26.79;39.66
50852;BME280;43953;45.508;-122.806;2023-07-20T00:42:49;100580.25;;;26.80;40.10
50852;BME280;43953;45.508;-122.806;2023-07-20T00:43:20;100576.38;;;26.81;40.21
50852;BME280;43953;45.508;-122.806;2023-07-20T00:43:52;100576.38;;;26.81;39.90
50852;BME280;43953;45.508;-122.806;2023-07-20T00:44:24;100576.38;;;26.81;39.92
50852;BME280;43953;45.508;-122.806;2023-07-20T00:44:55;100578.78;;;26.82;39.98
50852;BME280;43953;45.508;-122.806;2023-07-20T00:45:27;100574.91;;;26.83;40.33
50852;BME280;43953;45.508;-122.806;2023-07-20T00:45:59;100586.75;;;26.84;40.04
50852;BME280;43953;45.508;-122.806;2023-07-20T00:46:31;100581.25;;;26.84;40.02
50852;BME280;43953;45.508;-122.806;2023-07-20T00:47:05;100582.84;;;26.85;40.12
50852;BME280;43953;45.508;-122.806;2023-07-20T00:47:37;100577.34;;;26.85;40.24
50852;BME280;43953;45.508;-122.806;2023-07-20T00:48:08;100580.59;;;26.87;40.31
50852;BME280;43953;45.508;-122.806;2023-07-20T00:48:41;100583.34;;;26.87;40.11
50852;BME280;43953;45.508;-122.806;2023-07-20T00:49:14;100578.66;;;26.87;40.39
50852;BME280;43953;45.508;-122.806;2023-07-20T00:49:46;100582.22;;;26.88;40.11
50852;BME280;43953;45.508;-122.806;2023-07-20T00:50:19;100580.75;;;26.90;40.04
50852;BME280;43953;45.508;-122.806;2023-07-20T00:50:50;100578.34;;;26.89;40.33
50852;BME280;43953;45.508;-122.806;2023-07-20T00:51:23;100582.72;;;26.90;40.38
50852;BME280;43953;45.508;-122.806;2023-07-20T00:51:56;100581.56;;;26.91;40.27
50852;BME280;43953;45.508;-122.806;2023-07-20T00:52:28;100579.31;;;26.93;39.95
50852;BME280;43953;45.508;-122.806;2023-07-20T00:53:02;100578.50;;;26.92;40.24
50852;BME280;43953;45.508;-122.806;2023-07-20T00:53:36;100578.16;;;26.94;40.08
50852;BME280;43953;45.508;-122.806;2023-07-20T00:54:08;100579.31;;;26.93;40.13
50852;BME280;43953;45.508;-122.806;2023-07-20T00:54:41;100575.41;;;26.94;39.92
50852;BME280;43953;45.508;-122.806;2023-07-20T00:55:13;100575.41;;;26.94;40.36
50852;BME280;43953;45.508;-122.806;2023-07-20T00:55:45;100577.03;;;26.95;39.85
50852;BME280;43953;45.508;-122.806;2023-07-20T00:56:17;100579.47;;;26.96;39.96
50852;BME280;43953;45.508;-122.806;2023-07-20T00:56:49;100579.47;;;26.96;39.83
50852;BME280;43953;45.508;-122.806;2023-07-20T00:57:23;100574.75;;;26.97;40.00
50852;BME280;43953;45.508;-122.806;2023-07-20T00:57:56;100576.41;;;26.98;39.75
50852;BME280;43953;45.508;-122.806;2023-07-20T00:58:29;100579.97;;;26.98;39.85
50852;BME280;43953;45.508;-122.806;2023-07-20T00:59:01;100574.94;;;27.00;40.06
50852;BME280;43953;45.508;-122.806;2023-07-20T00:59:33;100578.81;;;26.99;40.09
50852;BME280;43953;45.508;-122.806;2023-07-20T01:00:06;100582.09;;;27.02;40.12
50852;BME280;43953;45.508;-122.806;2023-07-20T01:00:38;100569.41;;;27.00;39.68
50852;BME280;43953;45.508;-122.806;2023-07-20T01:01:10;100578.97;;;27.03;39.92
50852;BME280;43953;45.508;-122.806;2023-07-20T01:01:42;100578.19;;;27.03;39.69
50852;BME280;43953;45.508;-122.806;2023-07-20T01:02:13;100570.69;;;27.03;40.11
50852;BME280;43953;45.508;-122.806;2023-07-20T01:02:45;100574.59;;;27.02;40.02
50852;BME280;43953;45.508;-122.806;2023-07-20T01:03:18;100570.69;;;27.03;39.81
50852;BME280;43953;45.508;-122.806;2023-07-20T01:03:49;100576.72;;;27.05;39.72
50852;BME280;43953;45.508;-122.806;2023-07-20T01:04:21;100571.19;;;27.05;40.00
50852;BME280;43953;45.508;-122.806;2023-07-20T01:04:53;100568.44;;;27.05;39.77
50852;BME280;43953;45.508;-122.806;2023-07-20T01:05:35;100571.19;;;27.05;40.14
50852;BME280;43953;45.508;-122.806;2023-07-20T01:06:18;100573.66;;;27.07;40.17
50852;BME280;43953;45.508;-122.806;2023-07-20T01:07:08;100569.41;;;27.09;39.85
50852;BME280;43953;45.508;-122.806;2023-07-20T01:08:21;100575.44;;;27.11;40.18
50852;BME280;43953;45.508;-122.806;2023-07-20T01:09:16;100571.50;;;27.12;39.89
50852;BME280;43953;45.508;-122.806;2023-07-20T01:10:03;100577.53;;;27.14;40.28
50852;BME280;43953;45.508;-122.806;2023-07-20T01:10:46;100569.78;;;27.16;40.00
50852;BME280;43953;45.508;-122.806;2023-07-20T01:13:14;100565.72;;;27.22;40.01
50852;BME280;43953;45.508;-122.806;2023-07-20T01:13:47;100572.06;;;27.23;40.28
50852;BME280;43953;45.508;-122.806;2023-07-20T01:14:18;100570.09;;;27.23;39.98
50852;BME280;43953;45.508;-122.806;2023-07-20T01:14:51;100572.06;;;27.23;40.10
50852;BME280;43953;45.508;-122.806;2023-07-20T01:15:23;100579.19;;;27.24;40.07
50852;BME280;43953;45.508;-122.806;2023-07-20T01:16:00;100568.47;;;27.22;40.40
50852;BME280;43953;45.508;-122.806;2023-07-20T01:16:33;100572.84;;;27.23;40.27
50852;BME280;43953;45.508;-122.806;2023-07-20T01:17:05;100578.38;;;27.23;40.62
50852;BME280;43953;45.508;-122.806;2023-07-20T01:17:37;100566.53;;;27.23;40.28
50852;BME280;43953;45.508;-122.806;2023-07-20T01:18:09;100567.34;;;27.23;40.71
50852;BME280;43953;45.508;-122.806;2023-07-20T01:18:40;100571.75;;;27.25;40.52
50852;BME280;43953;45.508;-122.806;2023-07-20T01:19:14;100572.84;;;27.23;40.40
50852;BME280;43953;45.508;-122.806;2023-07-20T01:19:45;100571.75;;;27.25;40.30
50852;BME280;43953;45.508;-122.806;2023-07-20T01:20:19;100563.44;;;27.25;40.68
50852;BME280;43953;45.508;-122.806;2023-07-20T01:20:54;100572.84;;;27.23;40.46
50852;BME280;43953;45.508;-122.806;2023-07-20T01:23:33;100572.72;;;27.29;40.36
50852;BME280;43953;45.508;-122.806;2023-07-20T01:25:07;100572.56;;;27.34;40.44
50852;BME280;43953;45.508;-122.806;2023-07-20T01:27:10;100568.00;;;27.38;40.05
50852;BME280;43953;45.508;-122.806;2023-07-20T01:31:46;100559.69;;;27.47;40.29
50852;BME280;43953;45.508;-122.806;2023-07-20T01:32:23;100564.41;;;27.46;39.98
50852;BME280;43953;45.508;-122.806;2023-07-20T01:32:56;100568.31;;;27.45;40.36
50852;BME280;43953;45.508;-122.806;2023-07-20T01:33:31;100573.03;;;27.44;40.41
50852;BME280;43953;45.508;-122.806;2023-07-20T01:34:06;100561.97;;;27.44;39.95
50852;BME280;43953;45.508;-122.806;2023-07-20T01:34:40;100570.59;;;27.43;40.02
50852;BME280;43953;45.508;-122.806;2023-07-20T01:35:14;100561.16;;;27.44;39.99
50852;BME280;43953;45.508;-122.806;2023-07-20T01:35:52;100571.75;;;27.42;40.23
50852;BME280;43953;45.508;-122.806;2023-07-20T01:36:27;100556.28;;;27.41;39.93
50852;BME280;43953;45.508;-122.806;2023-07-20T01:37:01;100569.78;;;27.42;40.28
50852;BME280;43953;45.508;-122.806;2023-07-20T01:37:34;100560.69;;;27.42;40.30
50852;BME280;43953;45.508;-122.806;2023-07-20T01:38:07;100568.97;;;27.42;40.26
50852;BME280;43953;45.508;-122.806;2023-07-20T01:38:40;100560.69;;;27.42;40.01
50852;BME280;43953;45.508;-122.806;2023-07-20T01:39:13;100557.91;;;27.42;39.91
50852;BME280;43953;45.508;-122.806;2023-07-20T01:39:45;100564.25;;;27.42;40.01
50852;BME280;43953;45.508;-122.806;2023-07-20T01:40:18;100562.63;;;27.41;40.21
50852;BME280;43953;45.508;-122.806;2023-07-20T01:40:50;100564.25;;;27.42;39.90
50852;BME280;43953;45.508;-122.806;2023-07-20T01:41:23;100561.50;;;27.42;40.21
50852;BME280;43953;45.508;-122.806;2023-07-20T01:41:55;100559.53;;;27.43;39.79
50852;BME280;43953;45.508;-122.806;2023-07-20T01:42:27;100564.25;;;27.42;39.86
50852;BME280;43953;45.508;-122.806;2023-07-20T01:42:59;100565.06;;;27.43;40.02
50852;BME280;43953;45.508;-122.806;2023-07-20T01:43:30;100569.44;;;27.44;39.83
50852;BME280;43953;45.508;-122.806;2023-07-20T01:44:03;100563.91;;;27.44;40.07
50852;BME280;43953;45.508;-122.806;2023-07-20T01:44:37;100568.31;;;27.45;40.06
50852;BME280;43953;45.508;-122.806;2023-07-20T01:45:09;100573.03;;;27.44;39.79
50852;BME280;43953;45.508;-122.806;2023-07-20T01:45:40;100577.91;;;27.48;40.11
50852;BME280;43953;45.508;-122.806;2023-07-20T01:46:12;100572.38;;;27.48;39.88
50852;BME280;43953;45.508;-122.806;2023-07-20T01:46:44;100577.09;;;27.47;39.77
50852;BME280;43953;45.508;-122.806;2023-07-20T01:47:15;100567.66;;;27.48;40.06
50852;BME280;43953;45.508;-122.806;2023-07-20T01:47:47;100573.19;;;27.48;39.84
50852;BME280;43953;45.508;-122.806;2023-07-20T01:48:19;100569.28;;;27.49;40.05
50852;BME280;43953;45.508;-122.806;2023-07-20T01:48:51;100570.44;;;27.48;40.12
50852;BME280;43953;45.508;-122.806;2023-07-20T01:49:23;100571.72;;;27.51;39.62
50852;BME280;43953;45.508;-122.806;2023-07-20T01:49:54;100569.28;;;27.49;39.79
50852;BME280;43953;45.508;-122.806;2023-07-20T01:50:26;100570.91;;;27.50;39.65
50852;BME280;43953;45.508;-122.806;2023-07-20T01:50:58;100568.63;;;27.52;39.99
50852;BME280;43953;45.508;-122.806;2023-07-20T01:51:30;100574.16;;;27.52;39.89
50852;BME280;43953;45.508;-122.806;2023-07-20T01:52:02;100574.16;;;27.52;40.03
50852;BME280;43953;45.508;-122.806;2023-07-20T01:52:33;100569.44;;;27.53;39.74
50852;BME280;43953;45.508;-122.806;2023-07-20T01:53:05;100570.25;;;27.53;39.79
50852;BME280;43953;45.508;-122.806;2023-07-20T01:53:37;100571.91;;;27.54;39.67
50852;BME280;43953;45.508;-122.806;2023-07-20T01:54:09;100570.75;;;27.55;39.68
50852;BME280;43953;45.508;-122.806;2023-07-20T01:54:40;100580.66;;;27.56;39.78
50852;BME280;43953;45.508;-122.806;2023-07-20T01:55:12;100568.78;;;27.56;39.57
50852;BME280;43953;45.508;-122.806;2023-07-20T01:55:44;100572.38;;;27.56;39.46
50852;BME280;43953;45.508;-122.806;2023-07-20T01:56:15;100568.78;;;27.56;39.86
50852;BME280;43953;45.508;-122.806;2023-07-20T01:56:47;100574.00;;;27.57;39.78
50852;BME280;43953;45.508;-122.806;2023-07-20T01:57:19;100568.78;;;27.56;39.65
50852;BME280;43953;45.508;-122.806;2023-07-20T01:57:52;100572.84;;;27.58;39.32
50852;BME280;43953;45.508;-122.806;2023-07-20T01:58:24;100573.66;;;27.59;39.72
50852;BME280;43953;45.508;-122.806;2023-07-20T01:58:55;100575.31;;;27.60;39.72
50852;BME280;43953;45.508;-122.806;2023-07-20T01:59:27;100579.69;;;27.61;39.59
50852;BME280;43953;45.508;-122.806;2023-07-20T01:59:59;100572.19;;;27.61;39.62
50852;BME280;43953;45.508;-122.806;2023-07-20T02:00:30;100573.34;;;27.60;39.55
50852;BME280;43953;45.508;-122.806;2023-07-20T02:01:02;100576.94;;;27.61;39.28
50852;BME280;43953;45.508;-122.806;2023-07-20T02:01:34;100576.59;;;27.62;39.57
50852;BME280;43953;45.508;-122.806;2023-07-20T02:02:06;100580.19;;;27.63;39.64
50852;BME280;43953;45.508;-122.806;2023-07-20T02:02:37;100574.66;;;27.63;39.21
50852;BME280;43953;45.508;-122.806;2023-07-20T02:03:09;100573.81;;;27.62;39.45
50852;BME280;43953;45.508;-122.806;2023-07-20T02:03:43;100582.59;;;27.64;39.26
50852;BME280;43953;45.508;-122.806;2023-07-20T02:04:14;100577.06;;;27.64;39.12
50852;BME280;43953;45.508;-122.806;2023-07-20T02:04:46;100574.31;;;27.64;39.16
50852;BME280;43953;45.508;-122.806;2023-07-20T02:05:18;100578.69;;;27.65;39.56
50852;BME280;43953;45.508;-122.806;2023-07-20T02:05:49;100575.63;;;27.67;39.33
50852;BME280;43953;45.508;-122.806;2023-07-20T02:06:21;100580.34;;;27.66;39.49
50852;BME280;43953;45.508;-122.806;2023-07-20T02:06:53;100579.19;;;27.67;39.62
50852;BME280;43953;45.508;-122.806;2023-07-20T02:07:25;100573.66;;;27.67;39.35
50852;BME280;43953;45.508;-122.806;2023-07-20T02:07:57;100574.16;;;27.70;39.76
50852;BME280;43953;45.508;-122.806;2023-07-20T02:08:28;100579.34;;;27.71;39.56
50852;BME280;43953;45.508;-122.806;2023-07-20T02:09:00;100571.88;;;27.72;40.05
50852;BME280;43953;45.508;-122.806;2023-07-20T02:09:32;100577.41;;;27.72;40.29
50852;BME280;43953;45.508;-122.806;2023-07-20T02:10:04;100580.63;;;27.74;40.19
50852;BME280;43953;45.508;-122.806;2023-07-20T02:10:36;100579.84;;;27.73;40.61
50852;BME280;43953;45.508;-122.806;2023-07-20T02:11:08;100582.28;;;27.75;40.96
50852;BME280;43953;45.508;-122.806;2023-07-20T02:11:41;100579.19;;;27.76;41.00
50852;BME280;43953;45.508;-122.806;2023-07-20T02:12:12;100576.94;;;27.78;40.88
50852;BME280;43953;45.508;-122.806;2023-07-20T02:12:44;100579.69;;;27.78;40.79
50852;BME280;43953;45.508;-122.806;2023-07-20T02:13:16;100582.94;;;27.80;40.94
50852;BME280;43953;45.508;-122.806;2023-07-20T02:13:48;100578.69;;;27.83;41.01
50852;BME280;43953;45.508;-122.806;2023-07-20T02:14:19;100583.09;;;27.84;41.04
50852;BME280;43953;45.508;-122.806;2023-07-20T02:14:53;100584.72;;;27.85;40.92
50852;BME280;43953;45.508;-122.806;2023-07-20T02:15:25;100587.50;;;27.85;40.86
50852;BME280;43953;45.508;-122.806;2023-07-20T02:15:56;100583.56;;;27.86;40.99
50852;BME280;43953;45.508;-122.806;2023-07-20T02:16:28;100582.09;;;27.88;40.76
50852;BME280;43953;45.508;-122.806;2023-07-20T02:17:00;100584.06;;;27.88;40.78
50852;BME280;43953;45.508;-122.806;2023-07-20T02:17:32;100585.69;;;27.89;40.46
50852;BME280;43953;45.508;-122.806;2023-07-20T02:18:04;100581.78;;;27.90;40.31
50852;BME280;43953;45.508;-122.806;2023-07-20T02:18:35;100586.19;;;27.91;40.47
50852;BME280;43953;45.508;-122.806;2023-07-20T02:19:08;100589.44;;;27.93;40.49
50852;BME280;43953;45.508;-122.806;2023-07-20T02:19:40;100580.78;;;27.95;40.50
50852;BME280;43953;45.508;-122.806;2023-07-20T02:20:12;100581.59;;;27.95;40.59
50852;BME280;43953;45.508;-122.806;2023-07-20T02:20:44;100588.78;;;27.96;40.38
50852;BME280;43953;45.508;-122.806;2023-07-20T02:21:16;100583.25;;;27.96;40.07
50852;BME280;43953;45.508;-122.806;2023-07-20T02:21:47;100597.56;;;27.98;40.09
50852;BME280;43953;45.508;-122.806;2023-07-20T02:22:19;100581.78;;;27.99;40.50
50852;BME280;43953;45.508;-122.806;2023-07-20T02:22:51;100585.34;;;27.99;40.30
50852;BME280;43953;45.508;-122.806;2023-07-20T02:23:22;100582.22;;;28.01;40.11
50852;BME280;43953;45.508;-122.806;2023-07-20T02:23:54;100593.00;;;28.02;40.12
50852;BME280;43953;45.508;-122.806;2023-07-20T02:24:26;100581.91;;;28.02;40.10
50852;BME280;43953;45.508;-122.806;2023-07-20T02:24:58;100588.25;;;28.03;40.00
50852;BME280;43953;45.508;-122.806;2023-07-20T02:25:30;100591.53;;;28.05;39.90
50852;BME280;43953;45.508;-122.806;2023-07-20T02:26:01;100586.78;;;28.05;40.19
50852;BME280;43953;45.508;-122.806;2023-07-20T02:26:33;100589.22;;;28.07;39.93
50852;BME280;43953;45.508;-122.806;2023-07-20T02:27:05;100590.06;;;28.07;40.22
50852;BME280;43953;45.508;-122.806;2023-07-20T02:27:38;100587.75;;;28.09;39.80
50852;BME280;43953;45.508;-122.806;2023-07-20T02:28:14;100593.28;;;28.09;40.02
50852;BME280;43953;45.508;-122.806;2023-07-20T02:28:46;100587.75;;;28.09;40.08
50852;BME280;43953;45.508;-122.806;2023-07-20T02:29:17;100597.34;;;28.12;39.99
50852;BME280;43953;45.508;-122.806;2023-07-20T02:29:49;100595.38;;;28.12;39.86
50852;BME280;43953;45.508;-122.806;2023-07-20T02:30:21;100594.28;;;28.13;39.97
50852;BME280;43953;45.508;-122.806;2023-07-20T02:30:53;100597.50;;;28.16;39.88
50852;BME280;43953;45.508;-122.806;2023-07-20T02:31:25;100596.69;;;28.15;39.94
50852;BME280;43953;45.508;-122.806;2023-07-20T02:31:56;100593.59;;;28.17;40.13
50852;BME280;43953;45.508;-122.806;2023-07-20T02:32:28;100590.03;;;28.16;40.27
50852;BME280;43953;45.508;-122.806;2023-07-20T02:33:00;100599.16;;;28.17;40.67
50852;BME280;43953;45.508;-122.806;2023-07-20T02:33:32;100595.22;;;28.18;40.73
50852;BME280;43953;45.508;-122.806;2023-07-20T02:34:03;100596.03;;;28.18;40.42
50852;BME280;43953;45.508;-122.806;2023-07-20T02:34:35;100596.84;;;28.19;40.38
50852;BME280;43953;45.508;-122.806;2023-07-20T02:35:07;100594.56;;;28.21;40.43
50852;BME280;43953;45.508;-122.806;2023-07-20T02:35:40;100594.56;;;28.21;40.59
50852;BME280;43953;45.508;-122.806;2023-07-20T02:36:12;100593.41;;;28.22;40.17
50852;BME280;43953;45.508;-122.806;2023-07-20T02:36:43;100593.41;;;28.22;40.48
50852;BME280;43953;45.508;-122.806;2023-07-20T02:37:17;100596.16;;;28.22;40.07
50852;BME280;43953;45.508;-122.806;2023-07-20T02:37:49;100592.28;;;28.23;40.01
50852;BME280;43953;45.508;-122.806;2023-07-20T02:38:21;100594.69;;;28.24;40.14
50852;BME280;43953;45.508;-122.806;2023-07-20T02:38:52;100595.53;;;28.25;40.21
50852;BME280;43953;45.508;-122.806;2023-07-20T02:39:24;100595.53;;;28.25;40.27
50852;BME280;43953;45.508;-122.806;2023-07-20T02:39:56;100595.53;;;28.25;39.95
50852;BME280;43953;45.508;-122.806;2023-07-20T02:40:28;100602.69;;;28.26;40.13
50852;BME280;43953;45.508;-122.806;2023-07-20T02:41:00;100591.28;;;28.27;40.12
50852;BME280;43953;45.508;-122.806;2023-07-20T02:41:33;100597.66;;;28.28;40.25
50852;BME280;43953;45.508;-122.806;2023-07-20T02:42:05;100595.69;;;28.28;40.23
50852;BME280;43953;45.508;-122.806;2023-07-20T02:42:36;100596.50;;;28.29;40.38
50852;BME280;43953;45.508;-122.806;2023-07-20T02:43:08;100598.09;;;28.30;40.60
50852;BME280;43953;45.508;-122.806;2023-07-20T02:43:40;100592.56;;;28.30;40.65
50852;BME280;43953;45.508;-122.806;2023-07-20T02:44:12;100592.56;;;28.30;40.68
50852;BME280;43953;45.508;-122.806;2023-07-20T02:44:45;100603.63;;;28.30;40.54
50852;BME280;43953;45.508;-122.806;2023-07-20T02:45:16;100600.88;;;28.30;40.28
50852;BME280;43953;45.508;-122.806;2023-07-20T02:45:50;100600.88;;;28.30;40.21
50852;BME280;43953;45.508;-122.806;2023-07-20T02:46:22;100593.38;;;28.30;40.14
50852;BME280;43953;45.508;-122.806;2023-07-20T02:46:53;100599.75;;;28.31;39.95
50852;BME280;43953;45.508;-122.806;2023-07-20T02:47:25;100592.56;;;28.30;40.03
50852;BME280;43953;45.508;-122.806;2023-07-20T02:47:57;100600.88;;;28.30;39.68
50852;BME280;43953;45.508;-122.806;2023-07-20T02:48:28;100602.84;;;28.29;39.76
50852;BME280;43953;45.508;-122.806;2023-07-20T02:49:01;100597.28;;;28.29;40.03
50852;BME280;43953;45.508;-122.806;2023-07-20T02:49:32;100605.59;;;28.29;40.46
50852;BME280;43953;45.508;-122.806;2023-07-20T02:50:07;100606.41;;;28.30;40.79
50852;BME280;43953;45.508;-122.806;2023-07-20T02:50:39;100604.44;;;28.30;40.87
50852;BME280;43953;45.508;-122.806;2023-07-20T02:51:10;100607.56;;;28.29;40.83
50852;BME280;43953;45.508;-122.806;2023-07-20T02:51:43;100607.56;;;28.29;40.76
50852;BME280;43953;45.508;-122.806;2023-07-20T02:52:15;100607.56;;;28.29;40.76
50852;BME280;43953;45.508;-122.806;2023-07-20T02:52:47;100594.88;;;28.28;40.35
50852;BME280;43953;45.508;-122.806;2023-07-20T02:53:18;100607.56;;;28.29;40.46
50852;BME280;43953;45.508;-122.806;2023-07-20T02:53:50;100602.84;;;28.29;40.18
50852;BME280;43953;45.508;-122.806;2023-07-20T02:54:22;100602.84;;;28.29;40.37
50852;BME280;43953;45.508;-122.806;2023-07-20T02:54:53;100603.19;;;28.28;39.79